Terminal Aerodrome Forecast
Issued by NWS Jackson, KY

Home | Current Version | Previous Version | Text Only | Print | Product List | Glossary On
Versions: 1 2 3 4 5 6 7 8 9 10 11 12 13 14 15 16 17
634
FTUS43 KJKL 022333
TAFLOZ
TAF
KLOZ 022333Z 0300/0324 VRB03KT 5SM -SHRA SCT005 BKN030
     FM030400 VRB03KT 2SM BR OVC015
     FM030600 VRB03KT 1/2SM FG OVC007
     FM031300 30005KT P6SM VCSH BKN015
     FM031700 28005KT P6SM VCSH BKN025=

USA.gov is the U.S. government's official web portal to all federal, state and local government web resources and services.